Time;durP1;ratioP1;P1;durP2;ratioP2;P2;SDS_P1;SDS_P2;PMS_P1;PMS_P2;Temp;Humidity;BMP_temperature;BMP_pressure;BME280_temperature;BME280_humidity;BME280_pressure;Samples;Min_cycle;Max_cycle;Signal;HPM_P1;HPM_P2
2020/12/17 00:02:01;;;;;;;229.50;85.10;;;5.00;99.90;;;;;;5094629;28;20401;-80
2020/12/17 00:04:27;;;;;;;205.60;86.88;;;5.00;99.90;;;;;;5095164;28;20366;-80
2020/12/17 00:06:54;;;;;;;223.77;92.15;;;5.10;99.90;;;;;;5094392;28;20359;-80
2020/12/17 00:09:21;;;;;;;227.88;91.57;;;5.00;99.90;;;;;;5093397;28;20704;-80
2020/12/17 00:11:47;;;;;;;233.38;90.53;;;5.00;99.90;;;;;;5093179;28;20757;-80
2020/12/17 00:14:14;;;;;;;240.47;89.43;;;5.00;99.90;;;;;;5092251;28;20375;-80
2020/12/17 00:16:39;;;;;;;231.80;89.95;;;5.00;99.90;;;;;;5092430;28;20384;-80
2020/12/17 00:19:08;;;;;;;270.63;104.80;;;5.00;99.90;;;;;;5092490;28;20368;-81
2020/12/17 00:21:34;;;;;;;309.60;110.70;;;5.00;99.90;;;;;;5093043;28;20868;-79
2020/12/17 00:24:00;;;;;;;233.20;100.33;;;4.90;99.90;;;;;;5093125;28;20878;-80
2020/12/17 00:26:26;;;;;;;230.20;96.90;;;5.00;99.90;;;;;;5074911;28;20836;-78
2020/12/17 00:28:53;;;;;;;223.77;90.80;;;5.00;99.90;;;;;;5093094;28;20469;-78
2020/12/17 00:31:19;;;;;;;222.20;90.55;;;5.00;99.90;;;;;;5093039;28;20377;-79
2020/12/17 00:33:47;;;;;;;215.88;86.90;;;5.00;99.90;;;;;;5092833;28;20848;-79
2020/12/17 00:36:25;;;;;;;179.75;80.00;;;5.00;99.90;;;;;;5093366;28;20371;-79
2020/12/17 00:38:51;;;;;;;210.73;82.07;;;4.90;99.90;;;;;;5092889;28;20368;-79
2020/12/17 00:41:17;;;;;;;220.95;85.28;;;4.90;99.90;;;;;;5092633;28;20454;-79
2020/12/17 00:43:44;;;;;;;223.85;84.63;;;4.90;99.90;;;;;;5074679;28;20375;-79
2020/12/17 00:46:15;;;;;;;202.80;85.20;;;4.90;99.90;;;;;;5074535;28;20989;-79
2020/12/17 00:48:42;;;;;;;216.73;87.82;;;5.00;99.90;;;;;;5092681;28;20831;-78
2020/12/17 00:51:08;;;;;;;246.57;87.90;;;5.00;99.90;;;;;;5092483;28;20364;-79
2020/12/17 00:53:34;;;;;;;222.48;87.80;;;5.00;99.90;;;;;;5092472;28;20371;-79
2020/12/17 00:56:00;;;;;;;194.57;80.35;;;5.00;99.90;;;;;;5092443;28;21255;-79
2020/12/17 00:58:26;;;;;;;189.95;81.20;;;5.00;99.90;;;;;;5073543;28;20460;-79
2020/12/17 01:00:52;;;;;;;199.85;82.13;;;5.00;99.90;;;;;;5074317;28;20795;-79
2020/12/17 01:03:17;;;;;;;200.70;82.03;;;5.00;99.90;;;;;;5092517;28;20440;-78
2020/12/17 01:05:43;;;;;;;204.25;83.85;;;5.00;99.90;;;;;;5092735;28;20360;-79
2020/12/17 01:08:09;;;;;;;204.77;84.32;;;4.90;99.90;;;;;;5092455;28;20399;-81
2020/12/17 01:10:35;;;;;;;194.50;81.88;;;5.00;99.90;;;;;;5092757;28;20404;-80
2020/12/17 01:13:01;;;;;;;197.45;81.93;;;5.00;99.90;;;;;;5092349;28;20727;-81
2020/12/17 01:15:27;;;;;;;206.90;82.38;;;5.00;99.90;;;;;;5092357;28;20356;-81
2020/12/17 01:17:53;;;;;;;189.27;82.95;;;5.00;99.90;;;;;;5092188;28;20394;-81
2020/12/17 01:20:19;;;;;;;203.55;83.97;;;5.10;99.90;;;;;;5092296;28;20399;-81
2020/12/17 01:22:45;;;;;;;195.50;83.40;;;5.10;99.90;;;;;;5074351;28;20420;-81
2020/12/17 01:25:11;;;;;;;162.73;72.07;;;5.10;99.90;;;;;;5075344;28;20364;-81
2020/12/17 01:27:37;;;;;;;170.32;74.45;;;5.00;99.90;;;;;;5080764;28;20463;-81
2020/12/17 01:30:04;;;;;;;188.70;79.13;;;4.90;99.90;;;;;;5098976;28;20387;-80
2020/12/17 01:32:30;;;;;;;199.35;86.38;;;4.90;99.90;;;;;;5098980;28;21164;-81
2020/12/17 01:34:56;;;;;;;198.00;74.40;;;4.80;99.90;;;;;;5098896;28;20403;-81
2020/12/17 01:37:21;;;;;;;173.88;77.85;;;4.80;99.90;;;;;;5099002;28;20398;-81
2020/12/17 01:39:47;;;;;;;188.07;76.67;;;4.80;99.90;;;;;;5080725;28;20723;-81
2020/12/17 01:42:13;;;;;;;193.33;84.80;;;4.80;99.90;;;;;;5098749;28;20384;-81
2020/12/17 01:44:40;;;;;;;198.60;79.70;;;4.80;99.90;;;;;;5098814;28;20375;-82
2020/12/17 01:47:06;;;;;;;216.23;83.97;;;4.80;99.90;;;;;;5098902;28;21004;-82
2020/12/17 01:49:34;;;;;;;210.50;82.38;;;4.80;99.90;;;;;;5098775;28;20443;-82
2020/12/17 01:52:00;;;;;;;192.27;79.97;;;4.80;99.90;;;;;;5098711;28;20364;-82
2020/12/17 01:54:25;;;;;;;227.82;87.57;;;4.80;99.90;;;;;;5098671;28;20391;-81
2020/12/17 01:57:05;;;;;;;243.25;87.75;;;4.80;99.90;;;;;;5098734;28;20395;-81
2020/12/17 01:59:46;;;;;;;214.35;81.78;;;4.80;99.90;;;;;;5098656;28;20368;-82
2020/12/17 02:02:19;;;;;;;230.53;90.30;;;4.80;99.90;;;;;;5098659;28;20384;-82
2020/12/17 02:04:45;;;;;;;230.77;85.15;;;4.70;99.90;;;;;;5080381;28;21041;-81
2020/12/17 02:07:12;;;;;;;206.68;81.45;;;4.70;99.90;;;;;;5080439;28;20390;-81
2020/12/17 02:09:38;;;;;;;189.93;80.53;;;4.70;99.90;;;;;;5080539;28;20376;-82
2020/12/17 02:12:04;;;;;;;193.15;80.75;;;4.70;99.90;;;;;;5098561;28;20859;-82
2020/12/17 02:14:30;;;;;;;220.02;85.43;;;4.80;99.90;;;;;;5080371;28;21192;-82
2020/12/17 02:16:56;;;;;;;234.85;86.38;;;4.70;99.90;;;;;;5098532;28;20448;-82
2020/12/17 02:19:22;;;;;;;208.57;84.22;;;4.70;99.90;;;;;;5098444;28;20462;-81
2020/12/17 02:21:48;;;;;;;212.32;81.15;;;4.70;99.90;;;;;;5098438;28;20399;-81
2020/12/17 02:24:22;;;;;;;192.93;78.32;;;4.70;99.90;;;;;;5098471;28;20352;-81
2020/12/17 02:26:48;;;;;;;195.80;79.32;;;4.70;99.90;;;;;;5080337;28;20464;-81
2020/12/17 02:29:14;;;;;;;185.30;73.88;;;4.70;99.90;;;;;;5080265;28;20447;-81
2020/12/17 02:31:40;;;;;;;152.90;67.35;;;4.60;99.90;;;;;;5080099;28;20372;-81
2020/12/17 02:34:06;;;;;;;168.50;66.88;;;4.60;99.90;;;;;;5098312;28;20395;-81
2020/12/17 02:36:32;;;;;;;166.55;68.43;;;4.60;99.90;;;;;;5097675;28;20711;-81
2020/12/17 02:38:59;;;;;;;205.32;74.50;;;4.60;99.90;;;;;;5094560;28;20435;-81
2020/12/17 02:41:25;;;;;;;168.20;71.38;;;4.60;99.90;;;;;;5095056;28;20396;-81
2020/12/17 02:43:52;;;;;;;250.73;81.80;;;4.60;99.90;;;;;;5095044;28;20356;-81
2020/12/17 02:46:18;;;;;;;218.30;78.53;;;4.60;99.90;;;;;;5094889;28;20493;-81
2020/12/17 02:48:48;;;;;;;190.10;74.10;;;4.60;99.90;;;;;;5095057;28;20776;-81
2020/12/17 02:51:13;;;;;;;220.02;78.35;;;4.60;99.90;;;;;;5095000;28;20367;-81
2020/12/17 02:53:39;;;;;;;206.40;78.75;;;4.60;99.90;;;;;;5076649;28;20455;-81
2020/12/17 02:56:05;;;;;;;178.32;71.78;;;4.60;99.90;;;;;;5076719;28;20426;-81
2020/12/17 02:58:31;;;;;;;194.98;73.50;;;4.60;99.90;;;;;;5094788;28;20799;-81
2020/12/17 03:00:56;;;;;;;165.93;68.72;;;4.70;99.90;;;;;;5094601;28;20364;-81
2020/12/17 03:03:22;;;;;;;187.32;75.28;;;4.70;99.90;;;;;;5076559;28;20860;-81
2020/12/17 03:05:48;;;;;;;175.05;73.10;;;4.70;99.90;;;;;;5076534;28;20361;-81
2020/12/17 03:08:14;;;;;;;176.13;71.65;;;4.70;99.90;;;;;;5094737;28;20844;-81
2020/12/17 03:10:40;;;;;;;212.10;77.85;;;4.70;99.90;;;;;;5094910;28;20376;-82
2020/12/17 03:13:06;;;;;;;188.47;75.10;;;4.70;99.90;;;;;;5094583;28;20776;-82
2020/12/17 03:15:31;;;;;;;216.17;77.03;;;4.70;99.90;;;;;;5094586;28;20368;-82
2020/12/17 03:17:57;;;;;;;186.50;73.67;;;4.70;99.90;;;;;;5076248;28;20899;-82
2020/12/17 03:20:23;;;;;;;182.87;74.90;;;4.60;99.90;;;;;;5076323;28;20875;-80
2020/12/17 03:22:49;;;;;;;178.50;72.07;;;4.70;99.90;;;;;;5094160;28;20388;-80
2020/12/17 03:25:15;;;;;;;188.00;76.40;;;4.70;99.90;;;;;;5094426;28;20407;-80
2020/12/17 03:27:41;;;;;;;207.20;78.35;;;4.70;99.90;;;;;;5076179;28;20364;-80
2020/12/17 03:30:07;;;;;;;180.18;72.93;;;4.60;99.90;;;;;;5094161;28;20906;-80
2020/12/17 03:32:33;;;;;;;175.07;71.35;;;4.60;99.90;;;;;;5094247;28;20369;-80
2020/12/17 03:34:59;;;;;;;176.30;73.10;;;4.60;99.90;;;;;;5094002;28;20392;-80
2020/12/17 03:37:25;;;;;;;173.95;71.82;;;4.60;99.90;;;;;;5094023;28;20373;-80
2020/12/17 03:39:51;;;;;;;146.15;66.38;;;4.60;99.90;;;;;;5093945;28;20785;-80
2020/12/17 03:42:17;;;;;;;151.38;62.03;;;4.60;99.90;;;;;;5093856;28;20467;-80
2020/12/17 03:44:44;;;;;;;139.73;62.90;;;4.40;99.90;;;;;;5094005;28;20357;-80
2020/12/17 03:47:10;;;;;;;151.43;63.10;;;4.40;99.90;;;;;;5093820;28;20364;-80
2020/12/17 03:49:36;;;;;;;194.50;65.53;;;4.40;99.90;;;;;;5093532;28;20365;-80
2020/12/17 03:52:01;;;;;;;137.80;60.72;;;4.40;99.90;;;;;;5093732;28;20719;-80
2020/12/17 03:54:27;;;;;;;150.90;62.63;;;4.50;99.90;;;;;;5075477;28;20414;-80
2020/12/17 03:56:53;;;;;;;158.27;63.40;;;4.40;99.90;;;;;;5093708;28;20360;-81
2020/12/17 03:59:19;;;;;;;146.65;65.15;;;4.50;99.90;;;;;;5093614;28;20467;-81
2020/12/17 04:01:45;;;;;;;145.05;61.95;;;4.50;99.90;;;;;;5093386;28;20862;-81
2020/12/17 04:04:10;;;;;;;148.75;61.97;;;4.50;99.90;;;;;;5093533;28;20368;-80
2020/12/17 04:06:36;;;;;;;164.85;68.28;;;4.50;99.90;;;;;;5093521;28;20387;-80
2020/12/17 04:09:02;;;;;;;161.23;70.33;;;4.50;99.90;;;;;;5093345;28;20739;-80
2020/12/17 04:11:28;;;;;;;152.90;65.63;;;4.50;99.90;;;;;;5093340;28;20723;-80
2020/12/17 04:13:54;;;;;;;154.45;65.53;;;4.50;99.90;;;;;;5075200;28;20375;-80
2020/12/17 04:16:20;;;;;;;166.80;70.75;;;4.40;99.90;;;;;;5093181;28;20368;-80
2020/12/17 04:18:46;;;;;;;181.65;70.55;;;4.50;99.90;;;;;;5093272;28;20529;-81
2020/12/17 04:21:12;;;;;;;224.20;70.80;;;4.50;99.90;;;;;;5093184;28;20399;-81
2020/12/17 04:23:37;;;;;;;173.02;67.93;;;4.50;99.90;;;;;;5093155;28;20356;-81
2020/12/17 04:26:03;;;;;;;148.63;63.72;;;4.50;99.90;;;;;;5074869;28;20375;-81
2020/12/17 04:28:29;;;;;;;142.77;58.83;;;4.40;99.90;;;;;;5092977;28;20397;-81
2020/12/17 04:30:55;;;;;;;139.50;61.13;;;4.30;99.90;;;;;;5093031;28;20365;-81
2020/12/17 04:33:21;;;;;;;140.53;62.93;;;4.50;99.90;;;;;;5074612;28;20418;-80
2020/12/17 04:35:47;;;;;;;148.13;59.65;;;4.50;99.90;;;;;;5092873;28;20387;-81
2020/12/17 04:38:13;;;;;;;149.82;60.97;;;4.40;99.90;;;;;;5092807;28;20372;-81
2020/12/17 04:40:39;;;;;;;145.25;61.97;;;4.40;99.90;;;;;;5092669;28;20365;-81
2020/12/17 04:43:05;;;;;;;140.93;59.53;;;4.40;99.90;;;;;;5092723;28;20442;-81
2020/12/17 04:45:31;;;;;;;145.75;59.08;;;4.40;99.90;;;;;;5092694;28;20856;-81
2020/12/17 04:47:59;;;;;;;148.30;57.80;;;4.40;99.90;;;;;;5092707;28;20446;-81
2020/12/17 04:50:26;;;;;;;131.27;56.63;;;4.40;99.90;;;;;;5092711;28;20403;-82
2020/12/17 04:53:00;;;;;;;119.53;54.90;;;4.40;99.90;;;;;;5074363;28;20420;-82
2020/12/17 04:55:29;;;;;;;164.80;58.97;;;4.40;99.90;;;;;;5092647;28;20514;-81
2020/12/17 04:57:58;;;;;;;147.45;57.53;;;4.40;99.90;;;;;;5074440;28;20762;-81
2020/12/17 05:00:25;;;;;;;143.43;63.43;;;4.30;99.90;;;;;;5073939;28;20373;-81
2020/12/17 05:02:55;;;;;;;141.10;58.33;;;4.30;99.90;;;;;;5074152;28;21055;-81
2020/12/17 05:05:23;;;;;;;123.05;56.58;;;4.30;99.90;;;;;;5074549;28;20708;-81
2020/12/17 05:07:48;;;;;;;115.72;54.05;;;4.30;99.90;;;;;;5092453;28;20723;-81
2020/12/17 05:10:14;;;;;;;118.82;55.05;;;4.30;99.90;;;;;;5092702;28;20368;-81
2020/12/17 05:12:40;;;;;;;133.70;57.38;;;4.30;99.90;;;;;;5074157;28;20384;-81
2020/12/17 05:15:06;;;;;;;133.10;59.88;;;4.30;99.90;;;;;;5092365;28;20356;-81
2020/12/17 05:17:32;;;;;;;202.20;67.68;;;4.30;99.90;;;;;;5074199;28;20834;-82
2020/12/17 05:19:58;;;;;;;163.90;65.95;;;4.30;99.90;;;;;;5092303;28;20373;-82
2020/12/17 05:22:25;;;;;;;195.53;65.80;;;4.30;99.90;;;;;;5092251;28;20431;-81
2020/12/17 05:24:50;;;;;;;138.50;59.05;;;4.30;99.90;;;;;;5092263;28;20368;-82
2020/12/17 05:27:16;;;;;;;128.53;57.80;;;4.30;99.90;;;;;;5092110;28;20364;-82
2020/12/17 05:29:43;;;;;;;147.45;61.60;;;4.40;99.90;;;;;;5092162;28;20703;-82
2020/12/17 05:32:11;;;;;;;150.95;63.05;;;4.40;99.90;;;;;;5074068;28;20372;-82
2020/12/17 05:34:38;;;;;;;126.60;57.90;;;4.40;99.90;;;;;;5073834;28;20392;-82
2020/12/17 05:37:06;;;;;;;128.00;58.65;;;4.40;99.90;;;;;;5092052;28;20866;-82
2020/12/17 05:39:33;;;;;;;134.13;57.27;;;4.30;99.90;;;;;;5092041;28;20368;-82
2020/12/17 05:42:00;;;;;;;130.48;58.10;;;4.40;99.90;;;;;;5092042;28;20396;-82
2020/12/17 05:44:29;;;;;;;138.32;56.92;;;4.40;99.90;;;;;;5092155;28;20407;-82
2020/12/17 05:46:56;;;;;;;144.27;59.03;;;4.40;99.90;;;;;;5073737;28;20371;-82
2020/12/17 05:49:29;;;;;;;152.75;63.13;;;4.40;99.90;;;;;;5092053;28;20368;-82
2020/12/17 05:52:17;;;;;;;150.95;62.35;;;4.40;99.90;;;;;;5092019;28;20373;-82
2020/12/17 05:55:02;;;;;;;145.85;62.97;;;4.40;99.90;;;;;;5091937;28;20368;-81
2020/12/17 05:57:28;;;;;;;140.80;59.33;;;4.40;99.90;;;;;;5091804;28;20375;-82
2020/12/17 06:00:04;;;;;;;150.27;64.53;;;4.40;99.90;;;;;;5073785;28;20376;-82
2020/12/17 06:02:32;;;;;;;163.80;65.13;;;4.40;99.90;;;;;;5091845;28;20389;-82
2020/12/17 06:05:15;;;;;;;142.40;60.63;;;4.40;99.90;;;;;;5091784;28;20369;-81
2020/12/17 06:07:41;;;;;;;153.90;58.50;;;4.40;99.90;;;;;;5091852;28;20353;-81
2020/12/17 06:10:08;;;;;;;134.10;58.28;;;4.40;99.90;;;;;;5092025;28;20509;-81
2020/12/17 06:12:35;;;;;;;139.48;60.10;;;4.40;99.90;;;;;;5074597;28;20369;-81
2020/12/17 06:15:05;;;;;;;160.60;57.25;;;4.40;99.90;;;;;;5095537;28;20370;-81
2020/12/17 06:17:38;;;;;;;164.30;60.93;;;4.40;99.90;;;;;;5095618;28;20831;-81
2020/12/17 06:20:06;;;;;;;154.03;61.67;;;4.40;99.90;;;;;;5077330;28;20471;-81
2020/12/17 06:22:33;;;;;;;173.23;63.95;;;4.40;99.90;;;;;;5095289;28;20389;-81
2020/12/17 06:24:59;;;;;;;178.80;68.88;;;4.40;99.90;;;;;;5095811;28;20711;-81
2020/12/17 06:27:31;;;;;;;198.27;94.28;;;4.40;99.90;;;;;;5095367;28;20851;-81
2020/12/17 06:30:08;;;;;;;172.15;78.40;;;4.40;99.90;;;;;;5095309;28;20368;-81
2020/12/17 06:32:35;;;;;;;207.80;99.63;;;4.40;99.90;;;;;;5095408;28;20375;-82
2020/12/17 06:35:28;;;;;;;171.35;71.75;;;4.40;99.90;;;;;;5095112;28;20399;-81
2020/12/17 06:37:55;;;;;;;174.45;72.95;;;4.40;99.90;;;;;;5095266;28;20365;-81
2020/12/17 06:40:28;;;;;;;176.77;74.30;;;4.40;99.90;;;;;;5095257;28;20427;-81
2020/12/17 06:42:54;;;;;;;180.88;70.30;;;4.50;99.90;;;;;;5095002;28;20396;-81
2020/12/17 06:45:30;;;;;;;174.75;68.68;;;4.50;99.90;;;;;;5076901;28;20372;-81
2020/12/17 06:47:56;;;;;;;169.97;76.97;;;4.50;99.90;;;;;;5094972;28;20532;-81
2020/12/17 06:50:30;;;;;;;191.33;83.87;;;4.50;99.90;;;;;;5095039;28;20803;-81
2020/12/17 06:53:06;;;;;;;142.20;70.78;;;4.40;99.90;;;;;;5094966;28;20360;-81
2020/12/17 06:55:46;;;;;;;188.43;82.80;;;4.50;99.90;;;;;;5094942;28;20452;-81
2020/12/17 06:58:25;;;;;;;221.00;109.13;;;4.40;99.90;;;;;;5094779;28;20380;-81
2020/12/17 07:00:55;;;;;;;172.63;73.95;;;4.50;99.90;;;;;;5094798;28;20426;-81
2020/12/17 07:03:42;;;;;;;138.97;61.47;;;4.40;99.90;;;;;;5094663;28;20400;-82
2020/12/17 07:06:18;;;;;;;153.98;66.22;;;4.40;99.90;;;;;;5094656;28;20360;-82
2020/12/17 07:08:46;;;;;;;149.80;65.80;;;4.40;99.90;;;;;;5094612;28;20369;-82
2020/12/17 07:11:44;;;;;;;165.35;71.07;;;4.40;99.90;;;;;;5076616;28;20384;-82
2020/12/17 07:14:25;;;;;;;161.82;70.13;;;4.40;99.90;;;;;;5076365;28;20365;-82
2020/12/17 07:16:55;;;;;;;178.75;75.10;;;4.40;99.90;;;;;;5076375;28;20412;-82
2020/12/17 07:19:22;;;;;;;186.73;81.03;;;4.50;99.90;;;;;;5094492;28;20380;-82
2020/12/17 07:22:14;;;;;;;189.02;78.40;;;4.50;99.90;;;;;;5094310;28;20412;-82
2020/12/17 07:24:40;;;;;;;208.93;82.47;;;4.50;99.90;;;;;;5059234;28;20457;-84
2020/12/17 07:27:12;;;;;;;194.32;79.95;;;4.50;99.90;;;;;;5094347;28;20367;-82
2020/12/17 07:29:43;;;;;;;199.30;78.88;;;4.50;99.90;;;;;;5094203;28;20359;-81
2020/12/17 07:32:30;;;;;;;192.30;81.78;;;4.50;99.90;;;;;;5076058;28;20368;-82
2020/12/17 07:34:58;;;;;;;197.18;81.70;;;4.50;99.90;;;;;;5093941;28;20441;-81
2020/12/17 07:37:35;;;;;;;260.38;101.63;;;4.60;99.90;;;;;;5075516;28;20388;-81
2020/12/17 07:40:24;;;;;;;205.63;99.25;;;4.60;99.90;;;;;;5094108;28;20368;-81
2020/12/17 07:42:57;;;;;;;176.30;104.18;;;4.60;99.90;;;;;;5080754;28;20890;-81
2020/12/17 07:45:48;;;;;;;156.57;85.43;;;4.50;99.90;;;;;;5093894;28;20456;-81
2020/12/17 07:48:40;;;;;;;188.98;97.80;;;4.50;99.90;;;;;;5093893;28;20839;-81
2020/12/17 07:51:15;;;;;;;174.07;78.63;;;4.50;99.90;;;;;;5093788;28;20372;-81
2020/12/17 07:53:41;;;;;;;155.95;70.97;;;4.50;99.90;;;;;;5093714;28;20443;-81
2020/12/17 07:56:08;;;;;;;159.68;72.00;;;4.50;99.90;;;;;;5093653;28;20752;-81
2020/12/17 07:58:38;;;;;;;165.52;73.10;;;4.50;99.90;;;;;;5075559;28;20364;-81
2020/12/17 08:01:05;;;;;;;177.50;77.87;;;4.50;99.90;;;;;;5093581;28;20417;-81
2020/12/17 08:03:52;;;;;;;187.82;81.72;;;4.50;99.90;;;;;;5093604;28;20502;-81
2020/12/17 08:06:23;;;;;;;169.63;77.35;;;4.50;99.90;;;;;;5075200;28;20380;-81
2020/12/17 08:08:55;;;;;;;182.60;79.23;;;4.50;99.90;;;;;;5093451;28;20357;-81
2020/12/17 08:11:21;;;;;;;190.18;83.55;;;4.50;99.90;;;;;;5075519;28;20383;-81
2020/12/17 08:13:47;;;;;;;187.90;81.35;;;4.60;99.90;;;;;;5093299;28;20912;-80
2020/12/17 08:16:13;;;;;;;176.82;77.60;;;4.60;99.90;;;;;;5093259;28;20360;-80
2020/12/17 08:18:39;;;;;;;174.27;80.38;;;4.50;99.90;;;;;;5074902;28;20398;-81
2020/12/17 08:21:10;;;;;;;175.82;80.18;;;4.60;99.90;;;;;;5074896;28;20421;-78
2020/12/17 08:23:41;;;;;;;182.30;81.47;;;4.60;99.90;;;;;;5074998;28;20693;-80
2020/12/17 08:26:11;;;;;;;225.43;98.10;;;4.60;99.90;;;;;;5093150;28;20368;-80
2020/12/17 08:28:39;;;;;;;235.90;105.40;;;4.70;99.90;;;;;;5093037;28;20363;-81
2020/12/17 08:31:11;;;;;;;359.33;170.90;;;4.60;99.90;;;;;;5074912;28;20863;-80
2020/12/17 08:33:41;;;;;;;330.92;143.25;;;4.60;99.90;;;;;;5092816;28;20387;-80
2020/12/17 08:36:13;;;;;;;456.52;250.75;;;4.60;99.90;;;;;;5092121;28;20426;-80
2020/12/17 08:38:39;;;;;;;197.07;86.70;;;4.60;99.90;;;;;;5074732;28;20711;-80
2020/12/17 08:41:06;;;;;;;230.23;97.53;;;4.60;99.90;;;;;;5092678;28;20395;-80
2020/12/17 08:43:45;;;;;;;201.68;96.85;;;4.60;99.90;;;;;;5092742;28;20360;-80
2020/12/17 08:46:15;;;;;;;223.68;107.45;;;4.60;99.90;;;;;;5092650;28;20364;-80
2020/12/17 08:48:43;;;;;;;239.07;108.47;;;4.60;99.90;;;;;;5092677;28;20360;-81
2020/12/17 08:51:16;;;;;;;242.43;115.87;;;4.60;99.90;;;;;;5092513;28;20403;-81
2020/12/17 08:53:44;;;;;;;215.10;100.28;;;4.60;99.90;;;;;;5092318;28;20395;-80
2020/12/17 08:56:11;;;;;;;233.18;115.93;;;4.60;99.90;;;;;;5074345;28;20425;-80
2020/12/17 08:58:46;;;;;;;268.80;136.95;;;4.60;99.90;;;;;;5092451;28;20364;-80
2020/12/17 09:01:24;;;;;;;292.65;165.27;;;4.60;99.90;;;;;;5092314;28;21100;-80
2020/12/17 09:03:50;;;;;;;264.95;157.55;;;4.60;99.90;;;;;;5092359;28;20765;-80
2020/12/17 09:06:22;;;;;;;199.70;102.75;;;4.60;99.90;;;;;;5092446;28;20403;-80
2020/12/17 09:08:48;;;;;;;208.35;108.88;;;4.60;99.90;;;;;;5074175;28;20398;-80
2020/12/17 09:11:31;;;;;;;237.40;123.70;;;4.60;99.90;;;;;;5092890;28;20373;-80
2020/12/17 09:14:02;;;;;;;213.05;102.25;;;4.60;99.90;;;;;;5092087;28;20373;-80
2020/12/17 09:16:29;;;;;;;321.25;172.98;;;4.60;99.90;;;;;;5092367;28;20392;-80
2020/12/17 09:19:02;;;;;;;257.27;129.98;;;4.60;99.90;;;;;;5092365;28;20723;-80
2020/12/17 09:21:28;;;;;;;231.23;111.10;;;4.60;99.90;;;;;;5074181;28;20434;-80
2020/12/17 09:23:56;;;;;;;191.75;98.07;;;4.50;99.90;;;;;;5074063;28;20361;-80
2020/12/17 09:26:22;;;;;;;190.98;91.72;;;4.50;99.90;;;;;;5092302;28;20371;-80
2020/12/17 09:28:59;;;;;;;184.68;87.95;;;4.50;99.90;;;;;;5092188;28;20369;-80
2020/12/17 09:31:35;;;;;;;184.57;92.50;;;4.50;99.90;;;;;;5091890;28;20369;-80
2020/12/17 09:34:14;;;;;;;178.07;85.22;;;4.50;99.90;;;;;;5073861;28;20897;-80
2020/12/17 09:36:43;;;;;;;186.80;87.70;;;4.40;99.90;;;;;;5092114;28;20368;-80
2020/12/17 09:39:14;;;;;;;189.30;87.72;;;4.50;99.90;;;;;;5092047;28;20364;-80
2020/12/17 09:41:54;;;;;;;199.23;87.38;;;4.50;99.90;;;;;;5091951;28;20959;-82
2020/12/17 09:44:46;;;;;;;202.27;92.20;;;4.50;99.90;;;;;;5073937;28;20851;-82
2020/12/17 09:47:12;;;;;;;196.18;88.70;;;4.50;99.90;;;;;;5072301;28;20364;-83
2020/12/17 09:49:39;;;;;;;203.80;94.20;;;4.40;99.90;;;;;;5096156;28;20379;-82
2020/12/17 09:52:12;;;;;;;212.90;97.65;;;4.50;99.90;;;;;;5096152;28;20718;-82
2020/12/17 09:54:43;;;;;;;209.40;107.20;;;4.60;99.90;;;;;;5096070;28;20430;-83
2020/12/17 09:57:11;;;;;;;173.95;84.72;;;4.60;99.90;;;;;;5095825;28;20361;-80
2020/12/17 09:59:39;;;;;;;189.73;93.28;;;4.60;99.90;;;;;;5095645;28;20362;-81
2020/12/17 10:02:07;;;;;;;187.95;96.05;;;4.60;99.90;;;;;;5095699;28;20423;-82
2020/12/17 10:04:33;;;;;;;184.95;89.60;;;4.60;99.90;;;;;;5096007;28;20366;-83
2020/12/17 10:06:59;;;;;;;209.43;103.50;;;4.60;99.90;;;;;;5077604;28;20365;-82
2020/12/17 10:09:27;;;;;;;173.20;89.07;;;4.60;99.90;;;;;;5077615;28;20380;-81
2020/12/17 10:11:54;;;;;;;177.65;86.45;;;4.60;99.90;;;;;;5095608;28;20373;-81
2020/12/17 10:14:20;;;;;;;179.25;87.05;;;4.60;99.90;;;;;;5095651;28;20728;-81
2020/12/17 10:16:47;;;;;;;179.07;95.13;;;4.60;99.90;;;;;;5077425;28;20380;-82
2020/12/17 10:19:15;;;;;;;172.27;88.63;;;4.60;99.90;;;;;;5095638;28;20365;-82
2020/12/17 10:21:41;;;;;;;178.50;84.95;;;4.50;99.90;;;;;;5095393;28;20385;-82
2020/12/17 10:24:07;;;;;;;194.15;95.78;;;4.50;99.90;;;;;;5077311;28;20364;-82
2020/12/17 10:26:33;;;;;;;192.77;92.83;;;4.50;99.90;;;;;;5095535;28;20386;-82
2020/12/17 10:29:00;;;;;;;171.23;88.80;;;4.50;99.90;;;;;;5095439;28;20399;-81
2020/12/17 10:31:27;;;;;;;183.38;88.40;;;4.40;99.90;;;;;;5077179;28;20719;-81
2020/12/17 10:33:54;;;;;;;179.85;85.70;;;4.50;99.90;;;;;;5076964;28;20389;-82
2020/12/17 10:36:20;;;;;;;161.40;78.78;;;4.50;99.90;;;;;;5095233;28;20369;-82
2020/12/17 10:38:45;;;;;;;169.87;77.40;;;4.50;99.90;;;;;;5095268;28;20473;-82
2020/12/17 10:41:11;;;;;;;187.27;89.60;;;4.50;99.90;;;;;;5076945;28;20375;-82
2020/12/17 10:43:38;;;;;;;190.65;92.82;;;4.60;99.90;;;;;;5095143;28;20890;-82
2020/12/17 10:46:04;;;;;;;200.77;98.28;;;4.60;99.90;;;;;;5076969;28;20373;-82
2020/12/17 10:48:29;;;;;;;243.25;100.13;;;4.60;99.90;;;;;;5076840;28;20390;-82
2020/12/17 10:50:55;;;;;;;190.50;88.30;;;4.70;99.90;;;;;;5095012;28;20839;-82
2020/12/17 10:53:21;;;;;;;199.13;93.50;;;5.00;99.90;;;;;;5094955;28;20371;-80
2020/12/17 10:55:47;;;;;;;192.13;91.80;;;5.20;99.90;;;;;;5095149;28;20730;-79
2020/12/17 10:58:14;;;;;;;182.98;86.57;;;5.20;99.90;;;;;;5093978;28;20376;-79
2020/12/17 11:00:41;;;;;;;158.45;82.93;;;5.40;99.90;;;;;;5094611;28;20450;-80
2020/12/17 11:03:07;;;;;;;169.55;89.43;;;5.50;99.90;;;;;;5090738;28;20899;-80
2020/12/17 11:05:35;;;;;;;172.10;90.35;;;5.40;99.90;;;;;;5093649;28;20368;-80
2020/12/17 11:08:02;;;;;;;117.03;65.45;;;5.30;99.90;;;;;;5075068;28;20372;-78
2020/12/17 11:10:27;;;;;;;143.23;77.10;;;5.60;99.90;;;;;;5092855;28;20372;-74
2020/12/17 11:12:54;;;;;;;149.43;89.70;;;6.00;99.90;;;;;;5090340;28;21025;-74
2020/12/17 11:15:19;;;;;;;380.90;329.38;;;6.30;99.90;;;;;;5091428;28;20373;-80
2020/12/17 11:17:45;;;;;;;207.68;132.27;;;6.60;99.90;;;;;;5075136;28;20525;-78
2020/12/17 11:20:12;;;;;;;151.05;84.00;;;7.00;99.90;;;;;;5093489;28;20364;-80
2020/12/17 11:22:39;;;;;;;187.70;93.90;;;6.70;99.90;;;;;;5094242;28;20384;-80
2020/12/17 11:25:05;;;;;;;233.93;124.35;;;6.00;99.90;;;;;;5094348;28;20461;-80
2020/12/17 11:27:31;;;;;;;259.77;138.68;;;5.70;99.90;;;;;;5094249;28;20352;-80
2020/12/17 11:29:57;;;;;;;198.57;100.85;;;5.60;99.90;;;;;;5094236;28;20356;-81
2020/12/17 11:32:23;;;;;;;249.97;128.37;;;5.40;99.90;;;;;;5076117;28;20733;-80
2020/12/17 11:34:50;;;;;;;217.05;113.22;;;5.20;99.90;;;;;;5093901;28;20475;-81
2020/12/17 11:37:17;;;;;;;231.35;115.32;;;5.20;99.90;;;;;;5094073;28;20394;-79
2020/12/17 11:39:43;;;;;;;224.97;117.10;;;5.10;99.90;;;;;;5093825;28;20467;-80
2020/12/17 11:42:09;;;;;;;245.52;123.90;;;5.10;99.90;;;;;;5075578;28;20483;-80
2020/12/17 11:44:35;;;;;;;233.90;121.88;;;5.10;99.90;;;;;;5072858;28;20728;-81
2020/12/17 11:47:01;;;;;;;231.10;123.75;;;5.30;99.90;;;;;;5083187;28;20372;-80
2020/12/17 11:49:26;;;;;;;230.45;122.20;;;5.10;99.90;;;;;;5092398;28;20377;-82
2020/12/17 11:51:53;;;;;;;556.97;354.90;;;5.20;99.90;;;;;;5092427;28;20369;-81
2020/12/17 11:54:19;;;;;;;331.58;179.10;;;5.20;99.90;;;;;;5093940;28;20471;-81
2020/12/17 11:56:51;;;;;;;259.67;137.43;;;5.30;99.90;;;;;;5092308;28;20373;-82
2020/12/17 11:59:18;;;;;;;277.58;138.10;;;5.40;99.90;;;;;;5092098;28;20928;-80
2020/12/17 12:01:45;;;;;;;292.98;154.13;;;5.50;99.90;;;;;;5091020;28;20403;-82
2020/12/17 12:04:11;;;;;;;265.75;134.63;;;5.50;99.90;;;;;;5092899;28;20374;-81
2020/12/17 12:06:37;;;;;;;330.60;194.00;;;5.40;99.90;;;;;;5074377;28;20373;-80
2020/12/17 12:09:05;;;;;;;294.00;155.00;;;5.30;99.90;;;;;;5075085;28;20387;-80
2020/12/17 12:11:31;;;;;;;374.03;179.57;;;5.30;99.90;;;;;;5092791;28;20375;-80
2020/12/17 12:13:57;;;;;;;323.00;153.55;;;5.30;99.90;;;;;;5093307;28;20360;-80
2020/12/17 12:16:24;;;;;;;355.13;165.40;;;5.30;99.90;;;;;;5093160;28;20398;-81
2020/12/17 12:18:50;;;;;;;390.55;188.32;;;5.40;99.90;;;;;;5093247;28;20418;-81
2020/12/17 12:21:17;;;;;;;307.23;142.13;;;5.30;99.90;;;;;;5074549;28;20399;-81
2020/12/17 12:23:44;;;;;;;333.52;161.05;;;5.20;99.90;;;;;;5092683;28;20403;-81
2020/12/17 12:26:10;;;;;;;328.20;155.10;;;5.20;99.90;;;;;;5108469;28;20463;-80
2020/12/17 12:28:39;;;;;;;367.23;173.63;;;5.20;99.90;;;;;;5072938;28;20685;-80
2020/12/17 12:31:06;;;;;;;321.13;147.80;;;5.20;99.90;;;;;;5072910;28;20367;-80
2020/12/17 12:33:32;;;;;;;319.15;149.00;;;5.20;99.90;;;;;;5072422;28;20370;-80